Time;durP1;ratioP1;P1;durP2;ratioP2;P2;SDS_P1;SDS_P2;PMS_P1;PMS_P2;Temp;Humidity;BMP_temperature;BMP_pressure;BME280_temperature;BME280_humidity;BME280_pressure;Samples;Min_cycle;Max_cycle;Signal;HPM_P1;HPM_P2
2022/06/06 00:01:20;;;;;;;4.80;4.40;;;15.80;99.90;;;;;;5064082;28;20094;-69
2022/06/06 00:03:47;;;;;;;5.90;3.80;;;15.80;99.90;;;;;;5062674;28;20044;-74
2022/06/06 00:06:17;;;;;;;4.22;3.83;;;15.80;99.90;;;;;;5055723;28;20088;-69
2022/06/06 00:08:44;;;;;;;5.43;4.03;;;15.90;99.90;;;;;;5052491;28;20105;-63
2022/06/06 00:11:11;;;;;;;7.53;4.07;;;15.90;99.90;;;;;;5064831;28;20044;-66
2022/06/06 00:13:43;;;;;;;4.70;4.10;;;15.90;99.90;;;;;;5050268;28;20048;-66
2022/06/06 00:16:09;;;;;;;4.50;4.10;;;15.90;99.90;;;;;;5067657;28;20051;-68
2022/06/06 00:18:35;;;;;;;6.18;3.90;;;15.90;99.90;;;;;;5066278;28;20434;-65
2022/06/06 00:21:03;;;;;;;5.57;4.35;;;15.90;99.90;;;;;;5067711;28;20052;-71
2022/06/06 00:23:28;;;;;;;6.82;4.43;;;15.90;99.90;;;;;;5067306;28;20044;-66
2022/06/06 00:25:54;;;;;;;6.53;4.80;;;15.90;99.90;;;;;;5065141;28;20125;-72
2022/06/06 00:28:21;;;;;;;5.63;4.43;;;15.90;99.90;;;;;;5055094;28;20055;-66
2022/06/06 00:30:47;;;;;;;4.93;4.40;;;15.90;99.90;;;;;;5066199;28;20048;-63
2022/06/06 00:35:59;;;;;;;8.18;4.95;;;15.90;99.90;;;;;;5066004;28;20052;-71
2022/06/06 00:38:26;;;;;;;5.95;4.57;;;15.90;99.90;;;;;;5050547;28;20131;-68
2022/06/06 00:40:52;;;;;;;5.55;4.70;;;16.00;99.90;;;;;;5067286;28;20447;-66
2022/06/06 00:43:19;;;;;;;7.07;5.32;;;16.00;99.90;;;;;;5069399;28;20506;-73
2022/06/06 00:45:49;;;;;;;9.98;4.40;;;16.00;99.90;;;;;;5070318;28;20059;-68
2022/06/06 00:48:47;;;;;;;4.70;4.30;;;16.00;99.90;;;;;;5070667;28;20040;-67
2022/06/06 00:51:15;;;;;;;6.10;4.60;;;16.00;99.90;;;;;;5005523;28;20067;-61
2022/06/06 00:53:59;;;;;;;4.95;4.13;;;16.00;99.90;;;;;;5067268;28;20055;-69
2022/06/06 00:56:37;;;;;;;4.55;4.25;;;16.00;99.90;;;;;;5068427;28;20059;-64
2022/06/06 00:59:09;;;;;;;5.32;4.80;;;16.00;99.90;;;;;;5070349;28;20059;-66
2022/06/06 01:01:36;;;;;;;5.50;5.00;;;16.00;99.90;;;;;;5051757;28;20119;-63
2022/06/06 01:04:04;;;;;;;9.75;5.22;;;15.90;99.90;;;;;;5053433;28;20132;-66
2022/06/06 01:06:33;;;;;;;6.22;5.65;;;16.00;99.90;;;;;;5053491;28;20440;-67
2022/06/06 01:08:59;;;;;;;5.50;5.00;;;16.00;99.90;;;;;;5069634;28;20482;-62
2022/06/06 01:11:25;;;;;;;6.10;5.50;;;15.90;99.90;;;;;;5065021;28;20044;-73
2022/06/06 01:13:52;;;;;;;6.43;5.28;;;15.90;99.90;;;;;;5030772;28;20375;-68
2022/06/06 01:16:41;;;;;;;5.95;5.38;;;16.00;99.90;;;;;;5053464;28;20040;-66
2022/06/06 01:19:32;;;;;;;6.28;5.47;;;16.00;99.90;;;;;;5069114;28;20052;-64
2022/06/06 01:22:38;;;;;;;5.40;4.90;;;15.90;99.90;;;;;;5063174;28;20534;-68
2022/06/06 01:25:43;;;;;;;5.43;4.97;;;15.90;99.90;;;;;;5058141;28;20048;-62
2022/06/06 01:28:43;;;;;;;5.10;4.60;;;15.90;99.90;;;;;;5070283;28;20445;-62
2022/06/06 01:31:36;;;;;;;4.38;4.13;;;15.80;99.90;;;;;;5087987;28;20126;-60
2022/06/06 01:34:05;;;;;;;5.25;4.85;;;15.80;99.90;;;;;;5061627;28;20074;-65
2022/06/06 01:36:33;;;;;;;5.07;4.57;;;15.70;99.90;;;;;;5069403;28;20035;-64
2022/06/06 01:39:04;;;;;;;6.88;4.78;;;15.70;99.90;;;;;;5062051;28;20122;-63
2022/06/06 01:41:42;;;;;;;5.28;4.78;;;15.70;99.90;;;;;;5069297;28;20531;-64
2022/06/06 01:44:37;;;;;;;6.60;4.68;;;15.60;99.90;;;;;;5069243;28;20139;-62
2022/06/06 01:47:09;;;;;;;4.88;4.57;;;15.60;99.90;;;;;;5062626;28;20068;-68
2022/06/06 01:49:35;;;;;;;4.88;4.35;;;15.60;99.90;;;;;;5051453;28;20040;-59
2022/06/06 01:52:08;;;;;;;4.13;3.83;;;15.50;99.90;;;;;;5069361;28;20574;-68
2022/06/06 01:54:34;;;;;;;4.63;4.22;;;15.50;99.90;;;;;;5068262;28;20052;-63
2022/06/06 01:57:02;;;;;;;4.63;4.30;;;15.50;99.90;;;;;;5069064;28;20107;-60
2022/06/06 01:59:28;;;;;;;5.15;4.75;;;15.40;99.90;;;;;;5067797;28;20546;-62
2022/06/06 02:01:54;;;;;;;4.35;4.05;;;15.40;99.90;;;;;;5068640;28;20494;-60
2022/06/06 02:04:19;;;;;;;8.15;4.50;;;15.40;99.90;;;;;;5069683;28;20101;-60
2022/06/06 02:06:46;;;;;;;4.68;3.78;;;15.40;99.90;;;;;;5068644;28;20091;-66
2022/06/06 02:09:12;;;;;;;5.88;3.63;;;15.40;99.90;;;;;;5052190;28;20043;-61
2022/06/06 02:11:38;;;;;;;3.90;3.50;;;15.40;99.90;;;;;;5066789;28;20127;-64
2022/06/06 02:14:08;;;;;;;4.97;2.92;;;15.40;99.90;;;;;;5087028;28;20273;-62
2022/06/06 02:16:33;;;;;;;4.40;2.95;;;15.30;99.90;;;;;;5052302;28;20043;-67
2022/06/06 02:18:59;;;;;;;3.22;2.95;;;15.30;99.90;;;;;;5068500;28;20093;-59
2022/06/06 02:21:25;;;;;;;3.38;2.55;;;15.30;99.90;;;;;;5061068;28;20054;-63
2022/06/06 02:23:50;;;;;;;2.90;2.70;;;15.30;99.90;;;;;;5068130;28;20474;-59
2022/06/06 02:26:16;;;;;;;5.95;3.08;;;15.20;99.90;;;;;;5087139;28;20050;-60
2022/06/06 02:28:42;;;;;;;3.25;2.95;;;15.20;99.90;;;;;;5052243;28;20123;-60
2022/06/06 02:31:09;;;;;;;2.95;2.45;;;15.20;99.90;;;;;;5066807;28;20178;-61
2022/06/06 02:33:36;;;;;;;4.10;2.80;;;15.20;99.90;;;;;;5052438;28;20058;-63
2022/06/06 02:36:03;;;;;;;5.68;3.05;;;15.10;99.90;;;;;;5067900;28;20052;-68
2022/06/06 02:38:29;;;;;;;5.20;3.67;;;15.10;99.90;;;;;;5069098;28;20042;-62
2022/06/06 02:41:07;;;;;;;2.65;2.45;;;15.00;99.90;;;;;;5049057;28;20052;-58
2022/06/06 02:43:43;;;;;;;3.63;3.10;;;15.00;99.90;;;;;;5069100;28;20047;-65
2022/06/06 02:46:11;;;;;;;8.25;3.72;;;14.90;99.90;;;;;;5068347;28;20063;-66
2022/06/06 02:48:37;;;;;;;3.35;3.05;;;14.80;99.90;;;;;;5051323;28;20090;-63
2022/06/06 02:51:04;;;;;;;5.50;3.55;;;14.80;99.90;;;;;;5067916;28;20426;-62
2022/06/06 02:53:30;;;;;;;4.13;3.60;;;14.70;99.90;;;;;;5068354;28;20052;-65
2022/06/06 02:55:57;;;;;;;4.68;2.70;;;14.70;99.90;;;;;;5057766;28;20056;-57
2022/06/06 02:58:24;;;;;;;4.63;2.70;;;14.70;99.90;;;;;;5064172;28;20044;-63
2022/06/06 03:00:58;;;;;;;3.10;2.20;;;14.60;99.90;;;;;;5051757;28;20071;-63
2022/06/06 03:03:23;;;;;;;4.07;2.75;;;14.60;99.90;;;;;;5067303;28;20090;-59
2022/06/06 03:06:28;;;;;;;2.78;2.58;;;14.50;99.90;;;;;;5068339;28;20040;-68
2022/06/06 03:09:29;;;;;;;3.20;2.45;;;14.50;99.90;;;;;;5086401;28;20154;-65
2022/06/06 03:12:14;;;;;;;4.93;2.55;;;14.40;99.90;;;;;;5065910;28;20580;-61
2022/06/06 03:15:06;;;;;;;4.53;2.70;;;14.30;99.90;;;;;;5054266;28;20047;-59
2022/06/06 03:20:47;;;;;;;3.22;2.20;;;14.30;99.90;;;;;;5068034;28;20052;-67
2022/06/06 03:23:26;;;;;;;3.80;2.38;;;14.30;99.90;;;;;;5065405;28;20054;-61
2022/06/06 03:25:55;;;;;;;3.63;2.13;;;14.30;99.90;;;;;;5068208;28;20055;-61
2022/06/06 03:28:39;;;;;;;5.53;2.30;;;14.30;99.90;;;;;;5067736;28;20043;-62
2022/06/06 03:31:46;;;;;;;2.08;1.88;;;14.20;99.90;;;;;;5068058;28;20390;-64
2022/06/06 03:34:11;;;;;;;2.83;2.28;;;14.20;99.90;;;;;;5045596;28;20518;-64
2022/06/06 03:36:43;;;;;;;2.17;1.98;;;14.20;99.90;;;;;;5067751;28;20074;-62
2022/06/06 03:39:26;;;;;;;5.40;2.03;;;14.20;99.90;;;;;;5068156;28;20155;-59
2022/06/06 03:42:18;;;;;;;1.92;1.83;;;14.10;99.90;;;;;;5067679;28;20485;-63
2022/06/06 03:45:15;;;;;;;6.20;2.00;;;14.20;99.90;;;;;;5066225;28;20055;-58
2022/06/06 03:47:55;;;;;;;1.80;1.70;;;14.20;99.90;;;;;;5067913;28;20052;-57
2022/06/06 03:50:42;;;;;;;3.85;1.67;;;14.20;99.90;;;;;;5067659;28;20044;-61
2022/06/06 03:53:20;;;;;;;1.80;1.70;;;14.10;99.90;;;;;;5067494;28;20056;-59
2022/06/06 03:56:34;;;;;;;1.60;1.50;;;14.10;99.90;;;;;;5057558;28;20498;-59
2022/06/06 03:59:00;;;;;;;1.70;1.60;;;14.10;99.90;;;;;;5021583;28;20060;-58
2022/06/06 04:01:26;;;;;;;2.42;1.80;;;14.10;99.90;;;;;;5067942;28;20043;-66
2022/06/06 04:03:53;;;;;;;2.22;1.45;;;14.10;99.90;;;;;;5067382;28;20517;-60
2022/06/06 04:06:20;;;;;;;2.17;1.92;;;14.10;99.90;;;;;;5043340;28;20040;-61
2022/06/06 04:08:46;;;;;;;1.90;1.80;;;14.10;99.90;;;;;;5067331;28;20098;-68
2022/06/06 04:11:49;;;;;;;2.47;2.28;;;14.00;99.90;;;;;;5066809;28;20068;-58
2022/06/06 04:14:56;;;;;;;4.32;1.80;;;14.00;99.90;;;;;;5043618;28;20060;-64
2022/06/06 04:17:26;;;;;;;2.00;1.88;;;14.00;99.90;;;;;;5055219;28;20481;-60
2022/06/06 04:19:58;;;;;;;;;;;14.00;99.90;;;;;;5072020;28;20040;-66
2022/06/06 04:22:43;;;;;;;2.90;1.80;;;14.00;99.90;;;;;;5071106;28;19964;-59
2022/06/06 04:25:15;;;;;;;1.90;1.80;;;14.00;99.90;;;;;;5089113;28;20043;-62
2022/06/06 04:27:52;;;;;;;2.15;1.95;;;14.10;99.90;;;;;;5053597;28;20464;-58
2022/06/06 04:30:39;;;;;;;1.95;1.83;;;14.10;99.90;;;;;;5047854;28;20049;-64
2022/06/06 04:33:27;;;;;;;2.10;2.00;;;14.10;99.90;;;;;;5069814;28;20854;-61
2022/06/06 04:36:15;;;;;;;7.90;2.22;;;14.10;99.90;;;;;;5071158;28;20059;-64
2022/06/06 04:39:11;;;;;;;2.22;2.13;;;14.10;99.90;;;;;;5070729;28;20126;-65
2022/06/06 04:42:04;;;;;;;1.80;1.70;;;14.10;99.90;;;;;;5068742;28;20592;-61
2022/06/06 04:45:10;;;;;;;1.98;1.88;;;14.10;99.90;;;;;;5071261;28;20188;-68
2022/06/06 04:47:38;;;;;;;2.00;1.70;;;14.10;99.90;;;;;;5044657;28;20524;-65
2022/06/06 04:50:11;;;;;;;2.13;1.80;;;14.10;99.90;;;;;;5070097;28;20040;-62
2022/06/06 04:52:41;;;;;;;2.13;1.92;;;14.10;99.90;;;;;;5069530;28;20930;-63
2022/06/06 04:55:10;;;;;;;2.53;1.88;;;14.10;99.90;;;;;;5069750;28;20056;-60
2022/06/06 04:57:45;;;;;;;1.50;1.40;;;14.10;99.90;;;;;;5070872;28;20056;-64
2022/06/06 05:00:11;;;;;;;1.25;1.23;;;14.10;99.90;;;;;;5069997;28;20048;-59
2022/06/06 05:02:36;;;;;;;1.70;1.60;;;14.10;99.90;;;;;;5069173;28;20048;-58
2022/06/06 05:05:05;;;;;;;1.98;1.40;;;14.10;99.90;;;;;;5070887;28;20118;-62
2022/06/06 05:07:41;;;;;;;1.40;1.40;;;14.10;99.90;;;;;;5070350;28;20066;-59
2022/06/06 05:10:33;;;;;;;3.17;1.40;;;14.10;99.90;;;;;;5070040;28;20060;-58
2022/06/06 05:13:51;;;;;;;1.02;1.02;;;14.10;99.90;;;;;;5056905;28;20056;-63
2022/06/06 05:16:51;;;;;;;1.00;1.00;;;14.10;99.90;;;;;;4969706;28;20497;-67
2022/06/06 05:19:45;;;;;;;1.15;1.00;;;14.10;99.90;;;;;;5042657;28;20067;-60
2022/06/06 05:22:30;;;;;;;0.90;0.90;;;14.10;99.90;;;;;;5023480;28;20061;-64
2022/06/06 05:24:58;;;;;;;0.90;0.90;;;14.10;99.90;;;;;;5056893;28;20097;-59
2022/06/06 05:27:39;;;;;;;0.88;0.88;;;14.10;99.90;;;;;;5070000;28;20052;-60
2022/06/06 05:30:16;;;;;;;1.30;1.30;;;14.10;99.90;;;;;;5087349;28;20463;-63
2022/06/06 05:33:01;;;;;;;5.68;1.45;;;14.10;99.90;;;;;;5068683;28;20472;-61
2022/06/06 05:35:55;;;;;;;1.50;1.05;;;14.10;99.90;;;;;;5059167;28;20410;-62
2022/06/06 05:38:44;;;;;;;1.08;1.08;;;14.10;99.90;;;;;;5069553;28;20488;-58
2022/06/06 05:41:47;;;;;;;2.07;1.63;;;14.10;99.90;;;;;;5058783;28;20072;-66
2022/06/06 05:44:35;;;;;;;1.75;1.65;;;14.10;99.90;;;;;;5067758;28;20054;-62
2022/06/06 05:47:05;;;;;;;1.92;1.80;;;14.10;99.90;;;;;;5074298;28;20047;-61
2022/06/06 05:49:34;;;;;;;2.58;1.90;;;14.10;99.90;;;;;;5053048;28;20048;-64
2022/06/06 05:52:21;;;;;;;3.55;1.95;;;14.00;99.90;;;;;;5070109;28;20044;-61
2022/06/06 05:54:58;;;;;;;3.58;2.20;;;14.00;99.90;;;;;;5067286;28;20059;-64
2022/06/06 05:57:33;;;;;;;2.30;2.08;;;14.00;99.90;;;;;;5069417;28;20547;-61
2022/06/06 06:00:05;;;;;;;3.60;2.40;;;14.00;99.90;;;;;;5069134;28;20514;-64
2022/06/06 06:02:45;;;;;;;5.55;2.60;;;14.00;99.90;;;;;;5052298;28;20048;-63
2022/06/06 06:05:23;;;;;;;7.68;2.97;;;14.00;99.90;;;;;;5067085;28;20056;-59
2022/06/06 06:08:22;;;;;;;3.45;3.00;;;14.00;99.90;;;;;;5069541;28;20044;-58
2022/06/06 06:10:57;;;;;;;5.45;3.00;;;14.00;99.90;;;;;;5087995;28;20054;-61
2022/06/06 06:13:57;;;;;;;3.88;3.20;;;14.00;99.90;;;;;;5087006;28;20052;-63
2022/06/06 06:16:29;;;;;;;3.83;2.45;;;14.00;99.90;;;;;;5060350;28;20044;-61
2022/06/06 06:19:11;;;;;;;2.60;2.30;;;14.00;99.90;;;;;;5069578;28;20397;-62
2022/06/06 06:21:57;;;;;;;2.58;2.38;;;14.00;99.90;;;;;;5056392;28;20047;-63
2022/06/06 06:24:29;;;;;;;5.20;3.10;;;13.90;99.90;;;;;;5047764;28;20457;-63
2022/06/06 06:26:58;;;;;;;4.05;2.97;;;13.90;99.90;;;;;;5064906;28;20047;-60
2022/06/06 06:29:25;;;;;;;4.70;2.63;;;13.90;99.90;;;;;;5068552;28;20182;-64
2022/06/06 06:32:09;;;;;;;4.70;3.15;;;13.90;99.90;;;;;;5068885;28;20494;-60
2022/06/06 06:34:44;;;;;;;5.78;2.95;;;13.80;99.90;;;;;;5066117;28;20537;-61
2022/06/06 06:37:29;;;;;;;6.55;3.83;;;13.80;99.90;;;;;;5052525;28;20059;-66
2022/06/06 06:40:08;;;;;;;7.32;3.65;;;13.80;99.90;;;;;;5086082;28;20059;-59
2022/06/06 06:42:52;;;;;;;4.18;2.92;;;13.80;99.90;;;;;;5068570;28;20044;-67
2022/06/06 06:45:29;;;;;;;5.03;4.03;;;13.80;99.90;;;;;;5070354;28;20083;-68
2022/06/06 06:48:03;;;;;;;5.82;3.85;;;13.80;99.90;;;;;;5066495;28;20052;-61
2022/06/06 06:50:54;;;;;;;3.47;3.05;;;13.80;99.90;;;;;;5066197;28;20339;-61
2022/06/06 06:53:29;;;;;;;8.10;4.22;;;13.80;99.90;;;;;;5049651;28;20425;-60
2022/06/06 06:56:07;;;;;;;6.68;3.85;;;13.80;99.90;;;;;;5064140;28;20066;-65
2022/06/06 06:58:53;;;;;;;6.05;3.80;;;13.90;99.90;;;;;;5048633;28;20051;-63
2022/06/06 07:01:30;;;;;;;6.03;4.00;;;13.80;99.90;;;;;;5065545;28;20059;-64
2022/06/06 07:10:06;;;;;;;9.13;3.60;;;13.90;99.90;;;;;;5064096;28;20052;-63
2022/06/06 07:12:41;;;;;;;5.43;3.97;;;14.00;99.90;;;;;;5065457;28;20043;-65
2022/06/06 07:15:37;;;;;;;8.35;4.70;;;14.10;99.90;;;;;;5065792;28;20047;-62
2022/06/06 07:18:08;;;;;;;4.75;3.05;;;14.20;99.90;;;;;;5063847;28;20192;-63
2022/06/06 07:20:38;;;;;;;3.45;3.00;;;14.20;99.90;;;;;;5083432;28;20123;-69
2022/06/06 07:23:09;;;;;;;2.63;2.42;;;14.20;99.90;;;;;;5061196;28;20032;-64
2022/06/06 07:25:37;;;;;;;4.72;2.90;;;14.30;99.90;;;;;;5063611;28;20044;-65
2022/06/06 07:28:07;;;;;;;4.35;2.80;;;14.40;99.90;;;;;;5065332;28;20059;-69
2022/06/06 07:30:38;;;;;;;3.38;2.42;;;14.50;99.90;;;;;;5072136;28;20675;-60
2022/06/06 07:33:24;;;;;;;3.47;1.73;;;14.50;99.90;;;;;;5066586;28;20378;-64
2022/06/06 07:35:58;;;;;;;5.70;2.20;;;14.50;99.90;;;;;;5054952;28;20784;-65
2022/06/06 07:38:36;;;;;;;3.40;2.60;;;14.60;99.90;;;;;;5064937;28;20049;-62
2022/06/06 07:41:08;;;;;;;4.10;2.33;;;14.80;99.90;;;;;;5049085;28;20139;-69
2022/06/06 07:43:52;;;;;;;5.45;2.88;;;14.90;99.90;;;;;;5062918;28;20146;-65
2022/06/06 07:46:57;;;;;;;7.53;3.33;;;14.90;99.90;;;;;;5063678;28;20054;-68
2022/06/06 07:49:44;;;;;;;4.95;3.03;;;15.00;99.90;;;;;;5065096;28;20102;-64
2022/06/06 07:52:48;;;;;;;4.07;3.05;;;15.10;99.90;;;;;;5050315;28;20052;-67
2022/06/06 07:55:19;;;;;;;11.60;3.25;;;15.20;99.90;;;;;;5068806;28;20052;-68
2022/06/06 07:58:08;;;;;;;6.60;3.53;;;15.30;99.90;;;;;;5082585;28;20047;-60
2022/06/06 08:00:34;;;;;;;4.97;2.95;;;15.30;99.90;;;;;;5070846;28;20055;-61
2022/06/06 08:03:19;;;;;;;4.65;3.13;;;15.20;99.90;;;;;;5069198;28;20055;-58
2022/06/06 08:05:48;;;;;;;4.82;3.17;;;15.20;99.90;;;;;;5067740;28;20032;-63
2022/06/06 08:08:35;;;;;;;11.30;4.13;;;15.30;99.90;;;;;;5069894;28;20127;-62
2022/06/06 08:11:13;;;;;;;8.48;4.07;;;15.30;99.90;;;;;;5067798;28;20411;-58
2022/06/06 08:14:01;;;;;;;5.05;3.30;;;15.30;99.90;;;;;;5087111;28;20101;-65
2022/06/06 08:16:37;;;;;;;3.70;3.00;;;15.20;99.90;;;;;;5064889;28;20131;-67
2022/06/06 08:19:23;;;;;;;6.43;3.40;;;15.70;99.90;;;;;;5086977;28;20064;-64
2022/06/06 08:21:50;;;;;;;4.68;2.78;;;16.00;99.90;;;;;;5059635;28;20040;-60
2022/06/06 08:24:25;;;;;;;2.50;2.35;;;16.10;99.90;;;;;;5070760;28;20123;-57
2022/06/06 08:26:53;;;;;;;5.53;2.72;;;16.00;99.90;;;;;;5061973;28;20066;-62
2022/06/06 08:29:19;;;;;;;6.55;3.00;;;16.10;99.90;;;;;;5070684;28;20083;-59
2022/06/06 08:31:45;;;;;;;7.43;3.00;;;16.40;99.90;;;;;;5049957;28;20040;-58
2022/06/06 08:34:14;;;;;;;3.88;2.80;;;16.80;99.90;;;;;;5063998;28;20109;-65
2022/06/06 08:36:45;;;;;;;4.25;2.63;;;17.10;99.90;;;;;;5064405;28;20516;-54
2022/06/06 08:39:23;;;;;;;7.50;3.25;;;17.30;99.90;;;;;;5054182;28;20048;-59
2022/06/06 08:42:08;;;;;;;10.02;2.67;;;17.30;99.90;;;;;;5070604;28;20055;-60
2022/06/06 08:45:05;;;;;;;10.15;2.83;;;17.50;99.90;;;;;;5088508;28;20063;-60
2022/06/06 08:47:52;;;;;;;7.78;3.13;;;17.80;99.90;;;;;;5039902;28;20124;-56
2022/06/06 08:50:44;;;;;;;3.78;2.78;;;18.30;99.90;;;;;;5070865;28;20442;-67
2022/06/06 08:53:39;;;;;;;2.20;2.00;;;18.50;99.90;;;;;;5054131;28;20075;-65
2022/06/06 08:56:50;;;;;;;4.22;3.00;;;18.60;99.10;;;;;;5040288;28;20495;-66
2022/06/06 08:59:47;;;;;;;5.78;2.78;;;18.40;97.50;;;;;;5071008;28;20091;-59
2022/06/06 09:02:34;;;;;;;5.18;2.78;;;17.80;98.80;;;;;;5070036;28;20342;-55
2022/06/06 09:05:26;;;;;;;4.13;2.53;;;17.40;99.90;;;;;;5069486;28;20374;-55
2022/06/06 09:08:10;;;;;;;4.93;2.83;;;17.00;99.90;;;;;;5078730;28;20024;-56
2022/06/06 09:11:13;;;;;;;7.47;3.67;;;16.70;99.90;;;;;;5087930;28;20383;-60
2022/06/06 09:14:16;;;;;;;6.25;2.60;;;16.50;99.90;;;;;;5070198;28;20068;-67
2022/06/06 09:17:03;;;;;;;5.40;2.95;;;16.40;99.90;;;;;;5068767;28;20078;-54
2022/06/06 09:19:54;;;;;;;6.65;3.45;;;16.30;99.90;;;;;;5069727;28;20080;-58
2022/06/06 09:22:47;;;;;;;6.47;2.30;;;16.40;99.90;;;;;;5067056;28;20044;-64
2022/06/06 09:25:22;;;;;;;4.90;3.25;;;16.40;99.90;;;;;;5072480;28;20082;-55
2022/06/06 09:28:29;;;;;;;7.90;3.13;;;16.50;99.90;;;;;;5063387;28;20048;-63
2022/06/06 09:31:43;;;;;;;5.80;2.58;;;16.50;99.90;;;;;;5086001;28;20048;-62
2022/06/06 09:34:34;;;;;;;4.18;2.72;;;16.40;99.90;;;;;;5005002;28;20087;-60
2022/06/06 09:37:26;;;;;;;3.22;2.22;;;16.70;99.90;;;;;;5060384;28;20087;-61
2022/06/06 09:40:18;;;;;;;5.07;2.40;;;17.00;99.90;;;;;;5080300;28;20521;-60
2022/06/06 09:43:05;;;;;;;3.42;2.10;;;17.30;99.90;;;;;;5085371;28;20047;-56
2022/06/06 09:45:37;;;;;;;2.97;1.80;;;17.40;99.90;;;;;;5079820;28;20457;-59
2022/06/06 09:48:06;;;;;;;3.75;1.80;;;17.50;99.90;;;;;;5058570;28;20045;-68
2022/06/06 09:51:02;;;;;;;3.50;1.70;;;17.90;99.90;;;;;;5076819;28;20131;-68
2022/06/06 09:53:28;;;;;;;8.35;1.77;;;18.20;94.30;;;;;;5081959;28;20048;-63
2022/06/06 09:59:12;;;;;;;5.97;1.30;;;18.40;86.80;;;;;;5057585;28;20052;-61
2022/06/06 10:02:04;;;;;;;1.40;0.77;;;18.30;84.70;;;;;;5066365;28;20063;-65
2022/06/06 10:05:03;;;;;;;1.75;1.17;;;18.20;84.30;;;;;;5066981;28;20126;-62
2022/06/06 10:07:59;;;;;;;6.43;1.10;;;18.10;88.90;;;;;;5076260;28;20044;-66
2022/06/06 10:10:58;;;;;;;7.25;1.25;;;18.00;87.70;;;;;;5081830;28;20498;-57
2022/06/06 10:13:42;;;;;;;3.10;1.23;;;17.90;91.20;;;;;;5075165;28;20425;-61
2022/06/06 10:16:33;;;;;;;3.50;1.10;;;18.00;93.70;;;;;;5066189;28;20052;-57
2022/06/06 10:19:10;;;;;;;7.53;1.60;;;18.30;86.30;;;;;;5071322;28;20131;-59
2022/06/06 10:21:59;;;;;;;3.80;1.05;;;18.50;86.60;;;;;;5072193;28;20043;-62
2022/06/06 10:24:53;;;;;;;2.70;1.00;;;18.80;86.70;;;;;;5066766;28;20095;-58
2022/06/06 10:27:34;;;;;;;3.88;1.35;;;19.00;85.90;;;;;;5062705;28;20075;-63
2022/06/06 10:30:16;;;;;;;4.32;0.82;;;19.00;70.50;;;;;;5073249;28;20047;-60
2022/06/06 10:32:57;;;;;;;1.77;0.90;;;19.10;71.80;;;;;;5054714;28;20052;-64
2022/06/06 10:35:51;;;;;;;2.70;1.13;;;19.20;69.90;;;;;;5073616;28;20060;-64
2022/06/06 10:38:36;;;;;;;3.80;1.00;;;19.10;60.60;;;;;;5066732;28;20054;-60
2022/06/06 10:41:17;;;;;;;6.30;1.10;;;19.00;74.60;;;;;;5068713;28;20086;-59
2022/06/06 10:44:00;;;;;;;2.63;0.75;;;18.80;67.90;;;;;;5073694;28;20949;-61
2022/06/06 10:46:46;;;;;;;3.33;0.65;;;18.60;71.90;;;;;;5066617;28;20131;-61
2022/06/06 10:49:15;;;;;;;4.28;0.90;;;18.60;72.50;;;;;;5051913;28;20075;-58
2022/06/06 10:51:47;;;;;;;;;;;18.60;61.40;;;;;;5068919;28;20444;-58
2022/06/06 10:54:37;;;;;;;3.03;1.08;;;18.50;65.90;;;;;;5086442;28;19919;-62
2022/06/06 10:57:28;;;;;;;2.05;0.85;;;18.40;68.70;;;;;;5072936;28;20063;-65
2022/06/06 10:59:57;;;;;;;2.20;0.40;;;18.70;70.40;;;;;;5068031;28;20140;-57
2022/06/06 11:03:04;;;;;;;1.65;0.60;;;18.70;57.10;;;;;;5068170;28;20465;-65
2022/06/06 11:05:55;;;;;;;3.20;0.90;;;18.70;57.00;;;;;;5047782;28;20067;-59
2022/06/06 11:08:47;;;;;;;4.78;1.20;;;18.40;61.60;;;;;;5079394;28;20083;-67
2022/06/06 11:11:43;;;;;;;5.80;1.35;;;18.30;70.90;;;;;;5084999;28;20047;-57
2022/06/06 11:14:24;;;;;;;1.67;0.70;;;18.30;73.10;;;;;;5064412;28;20055;-54
2022/06/06 11:17:28;;;;;;;3.00;0.88;;;17.90;74.00;;;;;;5077618;28;20395;-53
2022/06/06 11:20:25;;;;;;;3.72;1.08;;;17.60;78.70;;;;;;5079281;28;20084;-61
2022/06/06 11:23:02;;;;;;;5.60;0.85;;;17.30;81.20;;;;;;5053401;28;20415;-66
2022/06/06 11:25:57;;;;;;;2.72;0.65;;;17.30;79.80;;;;;;5083446;28;20042;-56
2022/06/06 11:28:48;;;;;;;3.30;0.82;;;17.40;85.70;;;;;;5068603;28;20083;-66
2022/06/06 11:31:41;;;;;;;3.72;0.85;;;17.70;77.00;;;;;;5082895;28;20126;-56
2022/06/06 11:34:18;;;;;;;2.20;0.60;;;18.00;87.40;;;;;;5083977;28;20122;-66
2022/06/06 11:37:12;;;;;;;4.15;0.70;;;18.20;76.20;;;;;;5084001;28;20101;-59
2022/06/06 11:39:41;;;;;;;2.85;0.60;;;18.30;86.70;;;;;;5063914;28;20643;-58
2022/06/06 11:42:25;;;;;;;1.75;0.80;;;18.50;79.30;;;;;;5058467;28;20044;-67
2022/06/06 11:45:16;;;;;;;1.77;0.70;;;18.50;76.50;;;;;;5084874;28;20494;-68
2022/06/06 11:48:09;;;;;;;5.90;0.90;;;18.70;82.20;;;;;;5064670;28;20055;-69
2022/06/06 11:50:56;;;;;;;4.07;1.00;;;18.80;62.00;;;;;;5065326;28;20058;-58
2022/06/06 11:53:41;;;;;;;3.65;0.73;;;18.80;56.40;;;;;;5082669;28;20044;-65
2022/06/06 11:56:43;;;;;;;3.53;0.88;;;19.00;65.00;;;;;;5064470;28;20136;-62
2022/06/06 11:59:23;;;;;;;1.13;0.40;;;19.10;67.50;;;;;;5081580;28;20040;-61
2022/06/06 12:02:00;;;;;;;3.83;0.65;;;19.20;59.40;;;;;;5080572;28;20083;-59
2022/06/06 12:04:50;;;;;;;2.05;0.60;;;19.20;58.30;;;;;;5066889;28;20048;-64
2022/06/06 12:07:27;;;;;;;2.92;0.88;;;19.10;55.80;;;;;;5063730;28;20078;-58
2022/06/06 12:10:17;;;;;;;2.75;0.50;;;19.10;61.40;;;;;;5081866;28;20043;-65
2022/06/06 12:13:13;;;;;;;8.05;1.08;;;19.00;57.30;;;;;;5064143;28;20044;-65
2022/06/06 12:15:51;;;;;;;4.93;0.40;;;18.90;60.90;;;;;;5082238;28;20063;-64
2022/06/06 12:18:25;;;;;;;4.30;0.80;;;18.70;61.40;;;;;;5082733;28;20428;-57
2022/06/06 12:21:32;;;;;;;4.50;0.80;;;18.40;63.10;;;;;;5041889;28;20535;-61
2022/06/06 12:24:19;;;;;;;2.67;0.77;;;18.00;75.20;;;;;;5075885;28;20040;-63
2022/06/06 12:26:58;;;;;;;3.25;0.90;;;17.80;90.40;;;;;;5053278;28;20052;-62
2022/06/06 12:29:44;;;;;;;5.15;0.65;;;17.90;80.50;;;;;;5064486;28;20040;-62
2022/06/06 12:32:32;;;;;;;3.58;0.93;;;18.20;76.10;;;;;;5081259;28;20055;-62
2022/06/06 12:35:13;;;;;;;2.75;0.65;;;18.50;70.70;;;;;;5064602;28;20090;-63
2022/06/06 12:37:48;;;;;;;0.57;0.57;;;18.80;74.80;;;;;;5065120;28;20105;-61
2022/06/06 12:40:14;;;;;;;2.38;0.40;;;19.00;66.60;;;;;;5086530;28;20869;-66
2022/06/06 12:43:18;;;;;;;5.88;1.00;;;19.00;61.50;;;;;;5062196;28;20105;-62
2022/06/06 12:45:56;;;;;;;2.85;0.73;;;19.00;56.00;;;;;;5076338;28;20080;-64
2022/06/06 12:48:44;;;;;;;1.85;0.70;;;18.90;51.00;;;;;;5087217;28;20044;-63
2022/06/06 12:51:28;;;;;;;1.35;0.40;;;18.80;51.50;;;;;;5067590;28;20615;-65
2022/06/06 12:54:19;;;;;;;1.35;0.70;;;18.60;52.00;;;;;;5084401;28;20444;-65
2022/06/06 12:56:59;;;;;;;1.83;0.60;;;18.60;52.00;;;;;;5068489;28;20131;-62
2022/06/06 12:59:44;;;;;;;1.50;0.50;;;18.80;52.10;;;;;;5084109;28;20070;-57
2022/06/06 13:02:24;;;;;;;1.77;0.50;;;19.00;55.40;;;;;;5064397;28;20052;-61
2022/06/06 13:04:53;;;;;;;1.25;0.47;;;19.00;45.30;;;;;;5068251;28;20128;-60
2022/06/06 13:07:29;;;;;;;4.40;0.63;;;19.00;43.30;;;;;;5067969;28;20501;-67
2022/06/06 13:10:19;;;;;;;4.30;0.52;;;19.00;42.70;;;;;;5086272;28;20097;-65
2022/06/06 13:13:10;;;;;;;3.20;0.60;;;19.00;53.60;;;;;;5084227;28;20387;-58
2022/06/06 13:16:13;;;;;;;0.90;0.38;;;18.90;40.10;;;;;;5051428;28;20052;-63
2022/06/06 13:18:51;;;;;;;1.63;0.60;;;18.70;37.50;;;;;;5059263;28;20102;-67
2022/06/06 13:21:48;;;;;;;0.85;0.30;;;18.50;39.10;;;;;;5068371;28;20052;-58
2022/06/06 13:24:17;;;;;;;2.47;0.38;;;18.40;42.20;;;;;;5083914;28;20036;-56
2022/06/06 13:26:55;;;;;;;2.72;0.38;;;18.30;42.80;;;;;;5068505;28;20036;-66
2022/06/06 13:29:33;;;;;;;0.30;0.30;;;18.20;40.60;;;;;;5085522;28;20503;-61
2022/06/06 13:32:07;;;;;;;1.85;0.52;;;18.10;43.80;;;;;;5050803;28;20055;-66
2022/06/06 13:34:56;;;;;;;1.48;0.40;;;18.00;40.90;;;;;;5072544;28;20491;-60
2022/06/06 13:37:22;;;;;;;;;;;18.00;44.60;;;;;;5086345;28;20040;-66
2022/06/06 13:40:09;;;;;;;5.00;0.70;;;17.80;45.70;;;;;;5086090;28;19931;-58
2022/06/06 13:42:53;;;;;;;0.82;0.50;;;17.70;46.00;;;;;;5084075;28;20056;-64
2022/06/06 13:45:49;;;;;;;2.33;0.57;;;17.60;54.40;;;;;;5083825;28;20059;-63
2022/06/06 13:48:39;;;;;;;2.88;0.80;;;17.40;66.30;;;;;;5060953;28;20093;-59
2022/06/06 13:51:30;;;;;;;1.88;0.70;;;17.30;72.00;;;;;;5065990;28;20048;-62
2022/06/06 13:54:01;;;;;;;3.08;0.70;;;17.20;72.00;;;;;;5071094;28;20052;-63
2022/06/06 13:56:54;;;;;;;3.92;0.80;;;17.30;73.80;;;;;;5063420;28;20064;-61
2022/06/06 13:59:52;;;;;;;2.38;0.85;;;17.30;78.20;;;;;;5087353;28;20052;-61
2022/06/06 14:02:27;;;;;;;3.88;0.70;;;17.30;71.10;;;;;;5069099;28;20053;-59
2022/06/06 14:05:13;;;;;;;1.58;0.43;;;17.40;76.20;;;;;;5081059;28;20079;-57
2022/06/06 14:08:05;;;;;;;1.75;0.70;;;17.40;78.90;;;;;;5075844;28;20497;-65
2022/06/06 14:11:01;;;;;;;2.28;0.73;;;17.40;79.10;;;;;;5087501;28;20056;-60
2022/06/06 14:13:45;;;;;;;0.82;0.60;;;17.30;76.20;;;;;;5081839;28;20044;-60